sensor_id;sensor_type;location;lat;lon;timestamp;temperature;humidity
20598;DHT22;10457;48.770;11.446;2022-09-12T00:05:18;12.60;99.90
20598;DHT22;10457;48.770;11.446;2022-09-12T00:10:42;12.60;99.90
20598;DHT22;10457;48.770;11.446;2022-09-12T00:16:05;12.50;99.90
20598;DHT22;10457;48.770;11.446;2022-09-12T00:21:27;12.40;99.90
20598;DHT22;10457;48.770;11.446;2022-09-12T00:26:50;12.40;99.90
20598;DHT22;10457;48.770;11.446;2022-09-12T00:32:11;12.40;99.90
20598;DHT22;10457;48.770;11.446;2022-09-12T00:37:33;12.40;99.90
20598;DHT22;10457;48.770;11.446;2022-09-12T00:42:56;12.40;99.90
20598;DHT22;10457;48.770;11.446;2022-09-12T00:48:25;12.40;99.90
20598;DHT22;10457;48.770;11.446;2022-09-12T00:53:54;12.30;99.90
20598;DHT22;10457;48.770;11.446;2022-09-12T00:59:19;12.30;99.90
20598;DHT22;10457;48.770;11.446;2022-09-12T01:04:43;12.30;99.90
20598;DHT22;10457;48.770;11.446;2022-09-12T01:10:08;12.20;99.90
20598;DHT22;10457;48.770;11.446;2022-09-12T01:15:31;12.10;99.90
20598;DHT22;10457;48.770;11.446;2022-09-12T01:21:03;12.10;99.90
20598;DHT22;10457;48.770;11.446;2022-09-12T01:26:48;12.10;99.90
20598;DHT22;10457;48.770;11.446;2022-09-12T01:32:24;12.10;99.90
20598;DHT22;10457;48.770;11.446;2022-09-12T01:37:58;12.00;99.90
20598;DHT22;10457;48.770;11.446;2022-09-12T01:43:31;12.00;99.90
20598;DHT22;10457;48.770;11.446;2022-09-12T01:49:00;12.00;99.90
20598;DHT22;10457;48.770;11.446;2022-09-12T01:54:28;12.00;99.90
20598;DHT22;10457;48.770;11.446;2022-09-12T01:59:55;12.10;99.90
20598;DHT22;10457;48.770;11.446;2022-09-12T02:05:26;12.10;99.90
20598;DHT22;10457;48.770;11.446;2022-09-12T02:10:54;12.00;99.90
20598;DHT22;10457;48.770;11.446;2022-09-12T02:16:19;11.90;99.90
20598;DHT22;10457;48.770;11.446;2022-09-12T02:21:47;11.90;99.90
20598;DHT22;10457;48.770;11.446;2022-09-12T02:27:14;12.00;99.90
20598;DHT22;10457;48.770;11.446;2022-09-12T02:32:40;12.00;99.90
20598;DHT22;10457;48.770;11.446;2022-09-12T02:38:09;12.10;99.90
20598;DHT22;10457;48.770;11.446;2022-09-12T02:43:34;12.30;99.90
20598;DHT22;10457;48.770;11.446;2022-09-12T02:48:56;12.20;99.90
20598;DHT22;10457;48.770;11.446;2022-09-12T02:54:20;12.10;99.90
20598;DHT22;10457;48.770;11.446;2022-09-12T02:59:41;12.10;99.90
20598;DHT22;10457;48.770;11.446;2022-09-12T03:05:15;11.90;99.90
20598;DHT22;10457;48.770;11.446;2022-09-12T03:16:34;11.80;99.90
20598;DHT22;10457;48.770;11.446;2022-09-12T03:22:08;11.60;99.90
20598;DHT22;10457;48.770;11.446;2022-09-12T03:27:36;11.70;99.90
20598;DHT22;10457;48.770;11.446;2022-09-12T03:33:00;11.70;99.90
20598;DHT22;10457;48.770;11.446;2022-09-12T03:38:22;11.60;99.90
20598;DHT22;10457;48.770;11.446;2022-09-12T03:43:45;11.60;99.90
20598;DHT22;10457;48.770;11.446;2022-09-12T03:49:07;11.70;99.90
20598;DHT22;10457;48.770;11.446;2022-09-12T03:54:29;11.80;99.90
20598;DHT22;10457;48.770;11.446;2022-09-12T03:59:52;11.80;99.90
20598;DHT22;10457;48.770;11.446;2022-09-12T04:05:14;11.80;99.90
20598;DHT22;10457;48.770;11.446;2022-09-12T04:10:35;11.60;99.90
20598;DHT22;10457;48.770;11.446;2022-09-12T04:15:59;11.60;99.90
20598;DHT22;10457;48.770;11.446;2022-09-12T04:21:20;11.50;99.90
20598;DHT22;10457;48.770;11.446;2022-09-12T04:26:42;11.50;99.90
20598;DHT22;10457;48.770;11.446;2022-09-12T04:32:05;11.30;99.90
20598;DHT22;10457;48.770;11.446;2022-09-12T04:37:27;11.30;99.90
20598;DHT22;10457;48.770;11.446;2022-09-12T04:42:49;11.30;99.90
20598;DHT22;10457;48.770;11.446;2022-09-12T04:48:11;11.30;99.90
20598;DHT22;10457;48.770;11.446;2022-09-12T04:53:34;11.40;99.90
20598;DHT22;10457;48.770;11.446;2022-09-12T04:58:56;11.40;99.90
20598;DHT22;10457;48.770;11.446;2022-09-12T05:04:20;11.40;99.90
20598;DHT22;10457;48.770;11.446;2022-09-12T05:09:41;11.40;99.90
20598;DHT22;10457;48.770;11.446;2022-09-12T05:15:06;11.40;99.90
20598;DHT22;10457;48.770;11.446;2022-09-12T05:20:29;11.20;99.90
20598;DHT22;10457;48.770;11.446;2022-09-12T05:25:52;11.50;99.90
20598;DHT22;10457;48.770;11.446;2022-09-12T05:31:15;11.60;99.90
20598;DHT22;10457;48.770;11.446;2022-09-12T05:36:39;11.60;99.90
20598;DHT22;10457;48.770;11.446;2022-09-12T05:42:01;11.70;99.90
20598;DHT22;10457;48.770;11.446;2022-09-12T05:47:22;11.70;99.90
20598;DHT22;10457;48.770;11.446;2022-09-12T05:52:45;11.90;99.90
20598;DHT22;10457;48.770;11.446;2022-09-12T05:58:07;11.90;99.90
20598;DHT22;10457;48.770;11.446;2022-09-12T06:03:28;11.90;99.90
20598;DHT22;10457;48.770;11.446;2022-09-12T06:08:53;12.20;99.90
20598;DHT22;10457;48.770;11.446;2022-09-12T06:14:16;12.20;99.90
20598;DHT22;10457;48.770;11.446;2022-09-12T06:19:38;12.30;99.90
20598;DHT22;10457;48.770;11.446;2022-09-12T06:25:01;12.50;99.90
20598;DHT22;10457;48.770;11.446;2022-09-12T06:30:24;12.60;99.90
20598;DHT22;10457;48.770;11.446;2022-09-12T06:35:46;12.80;99.90
20598;DHT22;10457;48.770;11.446;2022-09-12T06:41:10;12.80;99.90
20598;DHT22;10457;48.770;11.446;2022-09-12T06:46:32;13.00;99.90
20598;DHT22;10457;48.770;11.446;2022-09-12T06:51:54;13.20;99.90
20598;DHT22;10457;48.770;11.446;2022-09-12T06:57:17;13.30;99.90
20598;DHT22;10457;48.770;11.446;2022-09-12T07:02:38;13.40;99.90
20598;DHT22;10457;48.770;11.446;2022-09-12T07:08:00;13.70;99.90
20598;DHT22;10457;48.770;11.446;2022-09-12T07:13:24;13.80;99.90
20598;DHT22;10457;48.770;11.446;2022-09-12T07:18:49;13.90;99.90
20598;DHT22;10457;48.770;11.446;2022-09-12T07:24:11;14.20;99.90
20598;DHT22;10457;48.770;11.446;2022-09-12T07:29:34;14.10;99.90
20598;DHT22;10457;48.770;11.446;2022-09-12T07:34:55;14.30;99.90
20598;DHT22;10457;48.770;11.446;2022-09-12T07:40:17;14.70;99.90
20598;DHT22;10457;48.770;11.446;2022-09-12T07:45:40;14.80;99.90
20598;DHT22;10457;48.770;11.446;2022-09-12T07:51:03;14.80;99.90
20598;DHT22;10457;48.770;11.446;2022-09-12T07:56:26;14.80;99.90
20598;DHT22;10457;48.770;11.446;2022-09-12T08:01:50;15.00;99.90
20598;DHT22;10457;48.770;11.446;2022-09-12T08:07:11;15.60;99.90
20598;DHT22;10457;48.770;11.446;2022-09-12T08:12:33;15.70;99.90
20598;DHT22;10457;48.770;11.446;2022-09-12T08:17:56;15.40;99.90
20598;DHT22;10457;48.770;11.446;2022-09-12T08:23:17;15.60;99.90
20598;DHT22;10457;48.770;11.446;2022-09-12T08:28:43;15.90;99.90
20598;DHT22;10457;48.770;11.446;2022-09-12T08:34:07;16.70;99.90
20598;DHT22;10457;48.770;11.446;2022-09-12T08:39:28;17.60;99.90
20598;DHT22;10457;48.770;11.446;2022-09-12T08:45:01;18.40;90.00
20598;DHT22;10457;48.770;11.446;2022-09-12T08:50:28;20.00;77.50
20598;DHT22;10457;48.770;11.446;2022-09-12T08:55:53;20.40;76.30
20598;DHT22;10457;48.770;11.446;2022-09-12T09:01:24;21.60;71.00
20598;DHT22;10457;48.770;11.446;2022-09-12T09:13:11;21.60;68.60
20598;DHT22;10457;48.770;11.446;2022-09-12T09:19:04;21.50;72.30
20598;DHT22;10457;48.770;11.446;2022-09-12T09:24:33;21.30;72.20
20598;DHT22;10457;48.770;11.446;2022-09-12T09:29:58;21.90;70.60
20598;DHT22;10457;48.770;11.446;2022-09-12T09:35:26;22.80;66.00
20598;DHT22;10457;48.770;11.446;2022-09-12T09:41:02;23.30;63.30
20598;DHT22;10457;48.770;11.446;2022-09-12T09:46:31;23.10;60.80
20598;DHT22;10457;48.770;11.446;2022-09-12T09:51:53;23.70;60.80
20598;DHT22;10457;48.770;11.446;2022-09-12T09:57:39;24.50;57.50
20598;DHT22;10457;48.770;11.446;2022-09-12T10:03:24;24.30;59.20
20598;DHT22;10457;48.770;11.446;2022-09-12T10:08:48;26.00;56.10
20598;DHT22;10457;48.770;11.446;2022-09-12T10:14:27;26.80;52.20
20598;DHT22;10457;48.770;11.446;2022-09-12T10:19:54;28.40;50.20
20598;DHT22;10457;48.770;11.446;2022-09-12T10:25:18;29.80;44.70
20598;DHT22;10457;48.770;11.446;2022-09-12T10:30:50;30.30;44.10
20598;DHT22;10457;48.770;11.446;2022-09-12T10:36:12;31.00;44.90
20598;DHT22;10457;48.770;11.446;2022-09-12T10:41:35;32.00;40.50
20598;DHT22;10457;48.770;11.446;2022-09-12T10:47:18;32.50;40.10
20598;DHT22;10457;48.770;11.446;2022-09-12T10:52:41;33.30;36.90
20598;DHT22;10457;48.770;11.446;2022-09-12T10:58:12;32.30;38.20
20598;DHT22;10457;48.770;11.446;2022-09-12T11:04:19;34.20;34.20
20598;DHT22;10457;48.770;11.446;2022-09-12T11:09:47;33.80;33.90
20598;DHT22;10457;48.770;11.446;2022-09-12T11:15:31;34.50;32.20
20598;DHT22;10457;48.770;11.446;2022-09-12T11:21:08;34.00;39.10
20598;DHT22;10457;48.770;11.446;2022-09-12T11:26:49;34.10;34.40
20598;DHT22;10457;48.770;11.446;2022-09-12T11:32:42;34.40;33.00
20598;DHT22;10457;48.770;11.446;2022-09-12T11:38:32;34.80;32.70
20598;DHT22;10457;48.770;11.446;2022-09-12T11:44:14;36.40;31.90
20598;DHT22;10457;48.770;11.446;2022-09-12T11:49:40;36.70;31.90
20598;DHT22;10457;48.770;11.446;2022-09-12T11:55:10;36.30;33.50
20598;DHT22;10457;48.770;11.446;2022-09-12T12:00:40;37.70;27.80
20598;DHT22;10457;48.770;11.446;2022-09-12T12:06:09;37.80;29.10
20598;DHT22;10457;48.770;11.446;2022-09-12T12:11:37;38.10;29.50
20598;DHT22;10457;48.770;11.446;2022-09-12T12:17:02;37.50;27.80
20598;DHT22;10457;48.770;11.446;2022-09-12T12:22:23;36.30;30.00
20598;DHT22;10457;48.770;11.446;2022-09-12T12:27:50;37.30;27.40
20598;DHT22;10457;48.770;11.446;2022-09-12T12:39:55;34.00;30.80
20598;DHT22;10457;48.770;11.446;2022-09-12T12:51:54;32.50;32.10
20598;DHT22;10457;48.770;11.446;2022-09-12T12:57:44;32.30;36.70
20598;DHT22;10457;48.770;11.446;2022-09-12T13:03:21;33.70;29.30
20598;DHT22;10457;48.770;11.446;2022-09-12T13:08:57;34.50;30.00
20598;DHT22;10457;48.770;11.446;2022-09-12T13:14:48;34.70;30.70
20598;DHT22;10457;48.770;11.446;2022-09-12T13:20:22;33.90;31.90
20598;DHT22;10457;48.770;11.446;2022-09-12T13:25:51;34.60;31.00
20598;DHT22;10457;48.770;11.446;2022-09-12T13:31:18;33.10;32.50
20598;DHT22;10457;48.770;11.446;2022-09-12T13:37:21;31.00;35.40
20598;DHT22;10457;48.770;11.446;2022-09-12T13:43:01;30.40;37.30
20598;DHT22;10457;48.770;11.446;2022-09-12T13:48:28;31.30;36.10
20598;DHT22;10457;48.770;11.446;2022-09-12T13:53:52;30.00;37.30
20598;DHT22;10457;48.770;11.446;2022-09-12T13:59:16;27.90;40.20
20598;DHT22;10457;48.770;11.446;2022-09-12T14:04:38;27.20;42.50
20598;DHT22;10457;48.770;11.446;2022-09-12T14:10:27;26.40;45.00
20598;DHT22;10457;48.770;11.446;2022-09-12T14:15:51;25.60;45.20
20598;DHT22;10457;48.770;11.446;2022-09-12T14:21:30;25.30;47.20
20598;DHT22;10457;48.770;11.446;2022-09-12T14:26:55;25.20;48.50
20598;DHT22;10457;48.770;11.446;2022-09-12T14:32:22;25.00;48.20
20598;DHT22;10457;48.770;11.446;2022-09-12T14:37:48;24.60;48.70
20598;DHT22;10457;48.770;11.446;2022-09-12T14:43:20;24.80;48.50
20598;DHT22;10457;48.770;11.446;2022-09-12T14:48:49;24.50;48.60
20598;DHT22;10457;48.770;11.446;2022-09-12T14:54:33;24.20;50.30
20598;DHT22;10457;48.770;11.446;2022-09-12T15:00:18;24.00;50.50
20598;DHT22;10457;48.770;11.446;2022-09-12T15:05:48;23.80;51.60
20598;DHT22;10457;48.770;11.446;2022-09-12T15:11:10;23.70;51.00
20598;DHT22;10457;48.770;11.446;2022-09-12T15:16:33;23.70;54.20
20598;DHT22;10457;48.770;11.446;2022-09-12T15:21:55;23.80;52.50
20598;DHT22;10457;48.770;11.446;2022-09-12T15:27:16;23.40;52.60
20598;DHT22;10457;48.770;11.446;2022-09-12T15:32:41;23.30;53.20
20598;DHT22;10457;48.770;11.446;2022-09-12T15:38:04;23.20;53.10
20598;DHT22;10457;48.770;11.446;2022-09-12T15:43:25;23.00;53.80
20598;DHT22;10457;48.770;11.446;2022-09-12T15:48:48;23.00;55.70
20598;DHT22;10457;48.770;11.446;2022-09-12T15:54:12;23.10;54.20
20598;DHT22;10457;48.770;11.446;2022-09-12T15:59:34;22.90;54.40
20598;DHT22;10457;48.770;11.446;2022-09-12T16:04:57;22.70;55.70
20598;DHT22;10457;48.770;11.446;2022-09-12T16:10:20;22.50;56.20
20598;DHT22;10457;48.770;11.446;2022-09-12T16:15:42;22.40;55.30
20598;DHT22;10457;48.770;11.446;2022-09-12T16:21:05;22.20;55.70
20598;DHT22;10457;48.770;11.446;2022-09-12T16:26:27;22.10;56.90
20598;DHT22;10457;48.770;11.446;2022-09-12T16:31:49;21.90;57.40
20598;DHT22;10457;48.770;11.446;2022-09-12T16:37:12;21.60;58.90
20598;DHT22;10457;48.770;11.446;2022-09-12T16:42:33;21.50;59.00
20598;DHT22;10457;48.770;11.446;2022-09-12T16:47:54;21.30;60.20
20598;DHT22;10457;48.770;11.446;2022-09-12T16:53:17;21.10;60.70
20598;DHT22;10457;48.770;11.446;2022-09-12T16:58:40;21.00;63.50
20598;DHT22;10457;48.770;11.446;2022-09-12T17:04:02;20.90;64.20
20598;DHT22;10457;48.770;11.446;2022-09-12T17:09:25;20.70;65.80
20598;DHT22;10457;48.770;11.446;2022-09-12T17:14:48;20.50;66.40
20598;DHT22;10457;48.770;11.446;2022-09-12T17:20:09;20.30;67.90
20598;DHT22;10457;48.770;11.446;2022-09-12T17:25:32;20.00;68.80
20598;DHT22;10457;48.770;11.446;2022-09-12T17:30:56;19.80;70.30
20598;DHT22;10457;48.770;11.446;2022-09-12T17:36:18;19.60;70.50
20598;DHT22;10457;48.770;11.446;2022-09-12T17:41:42;19.50;71.70
20598;DHT22;10457;48.770;11.446;2022-09-12T17:47:04;19.30;73.70
20598;DHT22;10457;48.770;11.446;2022-09-12T17:52:26;19.10;74.20
20598;DHT22;10457;48.770;11.446;2022-09-12T17:57:49;19.00;75.40
20598;DHT22;10457;48.770;11.446;2022-09-12T18:03:11;18.80;75.60
20598;DHT22;10457;48.770;11.446;2022-09-12T18:08:32;18.70;76.80
20598;DHT22;10457;48.770;11.446;2022-09-12T18:13:56;18.50;77.40
20598;DHT22;10457;48.770;11.446;2022-09-12T18:19:18;18.40;78.30
20598;DHT22;10457;48.770;11.446;2022-09-12T18:24:39;18.30;79.00
20598;DHT22;10457;48.770;11.446;2022-09-12T18:30:02;18.20;80.40
20598;DHT22;10457;48.770;11.446;2022-09-12T18:35:24;18.10;81.60
20598;DHT22;10457;48.770;11.446;2022-09-12T18:40:45;18.00;83.10
20598;DHT22;10457;48.770;11.446;2022-09-12T18:46:11;17.90;84.10
20598;DHT22;10457;48.770;11.446;2022-09-12T18:51:34;17.80;84.80
20598;DHT22;10457;48.770;11.446;2022-09-12T18:56:59;17.60;85.80
20598;DHT22;10457;48.770;11.446;2022-09-12T19:02:21;17.50;87.60
20598;DHT22;10457;48.770;11.446;2022-09-12T19:07:43;17.30;89.20
20598;DHT22;10457;48.770;11.446;2022-09-12T19:13:05;17.20;90.90
20598;DHT22;10457;48.770;11.446;2022-09-12T19:18:28;17.10;91.70
20598;DHT22;10457;48.770;11.446;2022-09-12T19:23:51;17.10;92.30
20598;DHT22;10457;48.770;11.446;2022-09-12T19:29:14;17.00;93.00
20598;DHT22;10457;48.770;11.446;2022-09-12T19:34:37;16.90;93.60
20598;DHT22;10457;48.770;11.446;2022-09-12T19:39:58;16.80;94.60
20598;DHT22;10457;48.770;11.446;2022-09-12T19:45:20;16.60;96.10
20598;DHT22;10457;48.770;11.446;2022-09-12T19:50:42;16.60;96.20
20598;DHT22;10457;48.770;11.446;2022-09-12T19:56:04;16.40;97.90
20598;DHT22;10457;48.770;11.446;2022-09-12T20:01:26;16.30;99.10
20598;DHT22;10457;48.770;11.446;2022-09-12T20:06:49;16.30;99.80
20598;DHT22;10457;48.770;11.446;2022-09-12T20:12:10;16.10;99.90
20598;DHT22;10457;48.770;11.446;2022-09-12T20:17:33;16.00;99.90
20598;DHT22;10457;48.770;11.446;2022-09-12T20:22:56;15.90;99.90
20598;DHT22;10457;48.770;11.446;2022-09-12T20:28:17;15.90;99.90
20598;DHT22;10457;48.770;11.446;2022-09-12T20:33:39;15.80;99.90
20598;DHT22;10457;48.770;11.446;2022-09-12T20:39:02;15.70;99.90
20598;DHT22;10457;48.770;11.446;2022-09-12T20:44:24;15.60;99.90
20598;DHT22;10457;48.770;11.446;2022-09-12T20:49:58;15.50;99.90
20598;DHT22;10457;48.770;11.446;2022-09-12T20:55:29;15.50;99.90
20598;DHT22;10457;48.770;11.446;2022-09-12T21:00:51;15.40;99.90
20598;DHT22;10457;48.770;11.446;2022-09-12T21:06:13;15.30;99.90
20598;DHT22;10457;48.770;11.446;2022-09-12T21:11:37;15.30;99.90
20598;DHT22;10457;48.770;11.446;2022-09-12T21:16:59;15.20;99.90
20598;DHT22;10457;48.770;11.446;2022-09-12T21:22:20;15.10;99.90
20598;DHT22;10457;48.770;11.446;2022-09-12T21:27:43;15.10;99.90
20598;DHT22;10457;48.770;11.446;2022-09-12T21:33:04;15.00;99.90
20598;DHT22;10457;48.770;11.446;2022-09-12T21:38:26;15.00;99.90
20598;DHT22;10457;48.770;11.446;2022-09-12T21:43:49;15.00;99.90
20598;DHT22;10457;48.770;11.446;2022-09-12T21:49:10;14.90;99.90
20598;DHT22;10457;48.770;11.446;2022-09-12T21:54:32;14.80;99.90
20598;DHT22;10457;48.770;11.446;2022-09-12T21:59:55;14.70;99.90
20598;DHT22;10457;48.770;11.446;2022-09-12T22:05:16;14.60;99.90
20598;DHT22;10457;48.770;11.446;2022-09-12T22:10:38;14.60;99.90
20598;DHT22;10457;48.770;11.446;2022-09-12T22:16:01;14.50;99.90
20598;DHT22;10457;48.770;11.446;2022-09-12T22:21:23;14.50;99.90
20598;DHT22;10457;48.770;11.446;2022-09-12T22:26:45;14.50;99.90
20598;DHT22;10457;48.770;11.446;2022-09-12T22:32:07;14.40;99.90
20598;DHT22;10457;48.770;11.446;2022-09-12T22:37:29;14.40;99.90
20598;DHT22;10457;48.770;11.446;2022-09-12T22:42:51;14.30;99.90
20598;DHT22;10457;48.770;11.446;2022-09-12T22:48:14;14.30;99.90
20598;DHT22;10457;48.770;11.446;2022-09-12T22:53:36;14.10;99.90
20598;DHT22;10457;48.770;11.446;2022-09-12T22:58:58;14.10;99.90
20598;DHT22;10457;48.770;11.446;2022-09-12T23:04:21;14.10;99.90
20598;DHT22;10457;48.770;11.446;2022-09-12T23:09:42;14.10;99.90
20598;DHT22;10457;48.770;11.446;2022-09-12T23:15:06;14.10;99.90
20598;DHT22;10457;48.770;11.446;2022-09-12T23:20:30;14.00;99.90
20598;DHT22;10457;48.770;11.446;2022-09-12T23:26:00;13.90;99.90
20598;DHT22;10457;48.770;11.446;2022-09-12T23:31:24;13.90;99.90
20598;DHT22;10457;48.770;11.446;2022-09-12T23:36:49;13.90;99.90
20598;DHT22;10457;48.770;11.446;2022-09-12T23:42:11;13.70;99.90
20598;DHT22;10457;48.770;11.446;2022-09-12T23:47:33;13.70;99.90
20598;DHT22;10457;48.770;11.446;2022-09-12T23:52:56;13.70;99.90
20598;DHT22;10457;48.770;11.446;2022-09-12T23:58:17;13.80;99.90
